createdAt,value
2019-04-04T00:02:23.001Z,66.07
2019-04-04T00:04:52.514Z,61.92
2019-04-04T00:07:21.275Z,61.37
2019-04-04T00:09:49.505Z,55.10
2019-04-04T00:12:17.764Z,52.03
2019-04-04T00:14:45.986Z,48.58
2019-04-04T00:17:14.226Z,48.33
2019-04-04T00:19:42.467Z,39.85
2019-04-04T00:22:10.704Z,37.67
2019-04-04T00:24:39.594Z,30.57
2019-04-04T00:27:08.243Z,37.35
2019-04-04T00:29:36.463Z,39.63
2019-04-04T00:32:04.712Z,33.65
2019-04-04T00:34:32.951Z,30.57
2019-04-04T00:37:04.344Z,31.15
2019-04-04T00:39:31.141Z,27.62
2019-04-04T00:41:59.396Z,29.12
2019-04-04T00:44:27.648Z,30.17
2019-04-04T00:46:55.885Z,30.48
2019-04-04T00:49:24.264Z,32.38
2019-04-04T00:51:52.496Z,28.62
2019-04-04T00:54:20.815Z,26.57
2019-04-04T00:56:49.324Z,25.40
2019-04-04T00:59:17.616Z,28.62
2019-04-04T01:01:46.283Z,21.62
2019-04-04T01:04:14.600Z,25.77
2019-04-04T01:06:42.832Z,27.98
2019-04-04T01:09:13.147Z,23.62
2019-04-04T01:11:41.023Z,23.35
2019-04-04T01:14:09.363Z,19.70
2019-04-04T01:16:38.216Z,20.68
2019-04-04T01:19:09.607Z,20.23
2019-04-04T01:21:36.854Z,20.80
2019-04-04T01:24:05.166Z,21.30
2019-04-04T01:26:35.179Z,21.05
2019-04-04T01:29:05.768Z,17.75
2019-04-04T01:31:33.476Z,20.43
2019-04-04T01:34:01.699Z,17.42
2019-04-04T01:36:30.741Z,19.55
2019-04-04T01:39:00.191Z,16.80
2019-04-04T01:41:29.266Z,16.27
2019-04-04T01:44:04.816Z,21.85
2019-04-04T01:46:27.599Z,18.45
2019-04-04T01:48:55.823Z,17.67
2019-04-04T01:51:25.393Z,20.48
2019-04-04T01:53:54.021Z,18.00
2019-04-04T01:56:22.250Z,20.15
2019-04-04T01:58:50.514Z,16.65
2019-04-04T02:01:18.740Z,18.35
2019-04-04T02:03:47.005Z,17.12
2019-04-04T02:06:15.291Z,15.83
2019-04-04T02:08:43.511Z,18.17
2019-04-04T02:11:12.562Z,19.52
2019-04-04T02:13:41.429Z,16.55
2019-04-04T02:16:09.819Z,19.80
2019-04-04T02:18:38.249Z,17.50
2019-04-04T02:21:06.475Z,17.23
2019-04-04T02:23:34.702Z,19.75
2019-04-04T02:26:04.703Z,18.85
2019-04-04T02:28:32.897Z,19.23
2019-04-04T02:31:01.555Z,19.57
2019-04-04T02:33:32.386Z,18.35
2019-04-04T02:36:00.549Z,19.40
2019-04-04T02:38:28.849Z,23.18
2019-04-04T02:40:57.164Z,21.90
2019-04-04T02:43:28.384Z,20.88
2019-04-04T02:45:55.592Z,19.70
2019-04-04T02:48:24.805Z,19.32
2019-04-04T02:50:53.196Z,22.37
2019-04-04T02:53:21.418Z,22.73
2019-04-04T02:55:49.669Z,21.42
2019-04-04T02:58:17.904Z,19.32
2019-04-04T03:00:47.087Z,22.58
2019-04-04T03:03:15.305Z,21.73
2019-04-04T03:05:43.785Z,20.57
2019-04-04T03:08:12.034Z,22.15
2019-04-04T03:10:40.272Z,20.50
2019-04-04T03:13:08.524Z,22.15
2019-04-04T03:15:40.840Z,23.18
2019-04-04T03:18:06.807Z,22.70
2019-04-04T03:20:35.899Z,21.75
2019-04-04T03:23:04.150Z,20.55
2019-04-04T03:25:32.392Z,22.75
2019-04-04T03:28:00.714Z,23.40
2019-04-04T03:30:28.956Z,24.47
2019-04-04T03:32:57.205Z,21.52
2019-04-04T03:35:27.738Z,21.97
2019-04-04T03:37:55.391Z,20.27
2019-04-04T03:40:25.571Z,24.07
2019-04-04T03:42:53.593Z,24.80
2019-04-04T03:45:26.069Z,21.70
2019-04-04T03:47:51.792Z,22.95
2019-04-04T03:50:20.097Z,21.12
2019-04-04T03:52:48.323Z,25.43
2019-04-04T03:55:16.583Z,22.35
2019-04-04T03:57:44.885Z,25.45
2019-04-04T04:00:30.043Z,25.40
2019-04-04T04:02:58.475Z,23.40
2019-04-04T04:05:34.077Z,26.33
2019-04-04T04:08:00.149Z,25.05
2019-04-04T04:10:32.299Z,25.20
2019-04-04T04:12:58.344Z,24.20
2019-04-04T04:15:29.235Z,22.95
2019-04-04T04:17:56.607Z,25.50
2019-04-04T04:20:24.859Z,25.82
2019-04-04T04:22:53.133Z,22.77
2019-04-04T04:25:21.561Z,27.35
2019-04-04T04:27:50.573Z,26.40
2019-04-04T04:30:18.799Z,24.32
2019-04-04T04:32:47.037Z,24.00
2019-04-04T04:35:15.462Z,24.75
2019-04-04T04:37:43.706Z,26.27
2019-04-04T04:40:14.954Z,23.40
2019-04-04T04:42:43.264Z,22.35
2019-04-04T04:45:12.518Z,24.57
2019-04-04T04:47:41.005Z,28.35
2019-04-04T04:50:09.990Z,24.52
2019-04-04T04:52:38.478Z,24.55
2019-04-04T04:55:06.747Z,23.35
2019-04-04T04:57:37.111Z,20.43
2019-04-04T05:00:05.500Z,24.82
2019-04-04T05:02:33.783Z,27.13
2019-04-04T05:05:02.102Z,26.27
2019-04-04T05:07:30.348Z,28.25
2019-04-04T05:09:58.702Z,27.00
2019-04-04T05:12:27.048Z,26.40
2019-04-04T05:14:55.447Z,28.95
2019-04-04T05:17:23.712Z,29.48
2019-04-04T05:19:52.105Z,24.90
2019-04-04T05:22:20.380Z,29.85
2019-04-04T05:25:06.986Z,31.15
2019-04-04T05:27:18.721Z,28.47
2019-04-04T05:29:47.149Z,29.63
2019-04-04T05:32:15.414Z,24.35
2019-04-04T05:34:43.661Z,32.93
2019-04-04T05:37:12.001Z,29.45
2019-04-04T05:39:40.458Z,36.80
2019-04-04T05:42:08.716Z,28.92
2019-04-04T05:44:36.912Z,29.77
2019-04-04T05:47:05.401Z,30.10
2019-04-04T05:49:33.613Z,26.02
2019-04-04T05:52:01.835Z,29.85
2019-04-04T05:54:30.103Z,32.93
2019-04-04T05:56:58.352Z,32.60
2019-04-04T05:59:26.650Z,26.02
2019-04-04T06:01:54.939Z,31.62
2019-04-04T06:04:23.151Z,32.85
2019-04-04T06:06:51.389Z,33.23
2019-04-04T06:09:19.679Z,34.65
2019-04-04T06:11:48.759Z,31.40
2019-04-04T06:14:17.084Z,27.27
2019-04-04T06:16:45.321Z,32.88
2019-04-04T06:19:14.827Z,32.75
2019-04-04T06:21:43.243Z,34.40
2019-04-04T06:24:11.482Z,40.23
2019-04-04T06:26:40.751Z,32.67
2019-04-04T06:29:08.984Z,33.60
2019-04-04T06:31:37.223Z,26.65
2019-04-04T06:34:05.991Z,32.05
2019-04-04T06:36:34.323Z,30.32
2019-04-04T06:39:02.558Z,32.15
2019-04-04T06:41:32.475Z,29.85
2019-04-04T06:44:00.744Z,29.30
2019-04-04T06:46:29.125Z,29.12
2019-04-04T06:48:57.408Z,26.73
2019-04-04T06:51:26.505Z,31.45
2019-04-04T06:53:54.743Z,22.98
2019-04-04T06:56:23.017Z,30.32
2019-04-04T06:58:51.235Z,26.82
2019-04-04T07:01:22.000Z,29.07
2019-04-04T07:03:49.405Z,30.15
2019-04-04T07:06:17.665Z,29.90
2019-04-04T07:08:46.854Z,29.23
2019-04-04T07:11:21.378Z,41.92
2019-04-04T07:13:45.492Z,33.50
2019-04-04T07:16:13.727Z,29.48
2019-04-04T07:18:42.996Z,28.50
2019-04-04T07:21:11.911Z,28.20
2019-04-04T07:23:41.813Z,30.92
2019-04-04T07:26:14.590Z,30.20
2019-04-04T07:28:40.253Z,30.80
2019-04-04T07:31:08.476Z,34.03
2019-04-04T07:33:36.903Z,25.95
2019-04-04T07:36:05.220Z,27.15
2019-04-04T07:38:35.016Z,29.90
2019-04-04T07:41:03.581Z,30.20
2019-04-04T07:43:31.804Z,27.20
2019-04-04T07:46:15.147Z,31.37
2019-04-04T07:48:29.983Z,26.05
2019-04-04T07:50:58.569Z,26.40
2019-04-04T07:53:28.379Z,30.12
2019-04-04T07:55:56.832Z,31.33
2019-04-04T07:58:25.090Z,22.60
2019-04-04T08:00:53.331Z,25.62
2019-04-04T08:03:21.596Z,28.77
2019-04-04T08:05:49.841Z,29.32
2019-04-04T08:08:18.460Z,26.77
2019-04-04T08:10:46.693Z,25.10
2019-04-04T08:13:14.922Z,21.00
2019-04-04T08:15:43.487Z,20.80
2019-04-04T08:18:11.719Z,25.68
2019-04-04T08:20:40.095Z,24.05
2019-04-04T08:23:08.534Z,22.87
2019-04-04T08:25:36.781Z,27.17
2019-04-04T08:28:05.010Z,22.62
2019-04-04T08:30:33.240Z,28.57
2019-04-04T08:33:01.472Z,26.12
2019-04-04T08:35:29.720Z,26.27
2019-04-04T08:37:57.977Z,29.25
2019-04-04T08:40:26.187Z,23.47
2019-04-04T08:42:54.403Z,26.77
2019-04-04T08:45:22.654Z,26.30
2019-04-04T08:47:51.066Z,24.72
2019-04-04T08:50:19.306Z,26.10
2019-04-04T08:52:47.528Z,23.57
2019-04-04T08:55:15.769Z,27.42
2019-04-04T08:57:44.004Z,22.55
2019-04-04T09:00:12.262Z,27.13
2019-04-04T09:02:40.498Z,25.27
2019-04-04T09:05:12.323Z,25.15
2019-04-04T09:07:38.824Z,25.97
2019-04-04T09:10:07.387Z,26.75
2019-04-04T09:12:35.693Z,28.98
2019-04-04T09:15:05.958Z,27.40
2019-04-04T09:17:34.311Z,26.65
2019-04-04T09:20:03.179Z,21.35
2019-04-04T09:22:31.642Z,23.80
2019-04-04T09:25:01.323Z,23.45
2019-04-04T09:27:29.964Z,23.38
2019-04-04T09:29:58.237Z,23.98
2019-04-04T09:32:26.487Z,24.90
2019-04-04T09:34:54.728Z,24.90
2019-04-04T09:37:23.050Z,22.50
2019-04-04T09:39:51.460Z,25.70
2019-04-04T09:42:19.812Z,25.75
2019-04-04T09:44:48.065Z,24.23
2019-04-04T09:47:16.316Z,26.95
2019-04-04T09:49:44.637Z,25.25
2019-04-04T09:52:12.870Z,24.65
2019-04-04T09:54:41.180Z,24.15
2019-04-04T09:57:09.575Z,24.45
2019-04-04T09:59:37.820Z,24.82
2019-04-04T10:02:06.075Z,21.73
2019-04-04T10:04:34.390Z,23.75
2019-04-04T10:07:02.665Z,21.62
2019-04-04T10:09:30.887Z,24.07
2019-04-04T10:11:59.133Z,21.62
2019-04-04T10:14:27.382Z,20.60
2019-04-04T10:16:55.623Z,23.18
2019-04-04T10:19:23.846Z,20.15
2019-04-04T10:21:52.095Z,21.75
2019-04-04T10:24:20.339Z,18.75
2019-04-04T10:26:48.659Z,22.02
2019-04-04T10:29:16.888Z,21.93
2019-04-04T10:31:45.705Z,20.65
2019-04-04T10:34:13.961Z,20.23
2019-04-04T10:36:42.557Z,20.43
2019-04-04T10:39:12.279Z,20.82
2019-04-04T10:41:41.250Z,21.50
2019-04-04T10:44:09.481Z,18.10
2019-04-04T10:46:37.818Z,19.27
2019-04-04T10:49:08.328Z,22.27
2019-04-04T10:51:36.135Z,19.32
2019-04-04T10:54:04.519Z,22.40
2019-04-04T10:56:32.904Z,21.87
2019-04-04T10:59:01.474Z,23.47
2019-04-04T11:01:29.851Z,25.15
2019-04-04T11:03:58.307Z,20.88
2019-04-04T11:06:26.592Z,24.47
2019-04-04T11:08:54.835Z,22.73
2019-04-04T11:11:23.063Z,23.15
2019-04-04T11:13:51.406Z,23.87
2019-04-04T11:16:29.493Z,25.02
2019-04-04T11:18:49.556Z,22.30
2019-04-04T11:21:18.070Z,25.27
2019-04-04T11:23:46.376Z,25.75
2019-04-04T11:26:14.643Z,26.93
2019-04-04T11:28:42.881Z,26.35
2019-04-04T11:31:11.109Z,25.62
2019-04-04T11:33:39.442Z,26.45
2019-04-04T11:36:07.775Z,27.93
2019-04-04T11:38:36.092Z,29.80
2019-04-04T11:41:04.325Z,26.37
2019-04-04T11:43:32.587Z,28.83
2019-04-04T11:46:01.065Z,23.42
2019-04-04T11:48:29.275Z,27.50
2019-04-04T11:50:57.508Z,33.40
2019-04-04T11:53:25.747Z,28.60
2019-04-04T11:55:54.018Z,25.97
2019-04-04T11:58:22.240Z,20.05
2019-04-04T12:00:52.223Z,26.87
2019-04-04T12:03:20.627Z,27.90
2019-04-04T12:05:48.969Z,26.80
2019-04-04T12:08:17.309Z,26.97
2019-04-04T12:10:45.599Z,28.50
2019-04-04T12:13:13.922Z,26.65
2019-04-04T12:15:42.393Z,26.90
2019-04-04T12:18:10.626Z,26.73
2019-04-04T12:20:38.856Z,23.00
2019-04-04T12:23:07.116Z,35.78
2019-04-04T12:25:35.435Z,25.37
2019-04-04T12:28:03.653Z,27.75
2019-04-04T12:30:31.920Z,28.35
2019-04-04T12:33:00.150Z,30.00
2019-04-04T12:35:28.377Z,28.42
2019-04-04T12:37:56.607Z,29.42
2019-04-04T12:40:24.836Z,29.42
2019-04-04T12:42:53.146Z,27.00
2019-04-04T12:45:21.597Z,28.47
2019-04-04T12:47:49.857Z,31.70
2019-04-04T12:50:18.088Z,35.58
2019-04-04T12:52:46.551Z,33.33
2019-04-04T12:55:14.878Z,37.78
2019-04-04T12:57:43.096Z,33.02
2019-04-04T13:00:11.336Z,35.13
2019-04-04T13:02:39.579Z,37.83
2019-04-04T13:05:08.176Z,38.58
2019-04-04T13:07:36.595Z,40.78
2019-04-04T13:10:11.772Z,34.33
2019-04-04T13:12:39.337Z,41.23
2019-04-04T13:15:09.073Z,42.83
2019-04-04T13:17:37.454Z,39.40
2019-04-04T13:20:06.983Z,39.42
2019-04-04T13:22:35.195Z,45.10
2019-04-04T13:25:05.276Z,41.37
2019-04-04T13:27:33.567Z,37.25
2019-04-04T13:30:01.879Z,36.15
2019-04-04T13:32:30.183Z,40.90
2019-04-04T13:34:59.802Z,37.48
2019-04-04T13:37:28.320Z,39.13
2019-04-04T13:39:56.570Z,40.48
2019-04-04T13:42:24.979Z,38.17
2019-04-04T13:44:53.565Z,38.83
2019-04-04T13:47:22.051Z,38.00
2019-04-04T13:49:50.321Z,35.90
2019-04-04T13:52:18.573Z,30.20
2019-04-04T13:54:46.792Z,34.98
2019-04-04T13:57:15.257Z,30.77
2019-04-04T13:59:43.513Z,37.55
2019-04-04T14:02:11.805Z,37.10
2019-04-04T14:04:40.257Z,37.63
2019-04-04T14:07:08.523Z,37.83
2019-04-04T14:09:36.791Z,31.77
2019-04-04T14:12:05.186Z,26.68
2019-04-04T14:14:33.429Z,25.80
2019-04-04T14:17:01.685Z,32.58
2019-04-04T14:19:31.543Z,26.52
2019-04-04T14:22:00.131Z,29.72
2019-04-04T14:24:28.369Z,30.68
2019-04-04T14:26:56.963Z,28.73
2019-04-04T14:29:27.764Z,29.15
2019-04-04T14:31:55.553Z,31.30
2019-04-04T14:34:23.776Z,32.90
2019-04-04T14:36:52.124Z,30.80
2019-04-04T14:39:20.372Z,33.08
2019-04-04T14:41:48.674Z,27.77
2019-04-04T14:44:16.901Z,33.23
2019-04-04T14:46:45.627Z,27.73
2019-04-04T14:49:14.545Z,30.57
2019-04-04T14:51:43.315Z,28.52
2019-04-04T14:54:11.728Z,29.35
2019-04-04T14:56:40.207Z,29.90
2019-04-04T14:59:08.585Z,26.82
2019-04-04T15:01:36.925Z,30.27
2019-04-04T15:04:05.172Z,31.80
2019-04-04T15:06:33.487Z,34.05
2019-04-04T15:09:01.847Z,22.05
2019-04-04T15:11:30.219Z,29.05
2019-04-04T15:13:58.451Z,26.35
2019-04-04T15:16:26.810Z,28.80
2019-04-04T15:18:55.255Z,26.87
2019-04-04T15:21:23.568Z,30.72
2019-04-04T15:23:51.902Z,29.72
2019-04-04T15:26:20.145Z,31.35
2019-04-04T15:28:48.567Z,30.35
2019-04-04T15:31:16.818Z,30.90
2019-04-04T15:33:45.036Z,32.23
2019-04-04T15:36:13.576Z,32.63
2019-04-04T15:38:41.877Z,36.93
2019-04-04T15:41:10.108Z,36.17
2019-04-04T15:43:38.353Z,31.30
2019-04-04T15:46:06.573Z,33.50
2019-04-04T15:48:34.816Z,38.48
2019-04-04T15:51:03.048Z,38.55
2019-04-04T15:53:31.279Z,33.10
2019-04-04T15:55:59.505Z,35.08
2019-04-04T15:58:27.779Z,36.80
2019-04-04T16:00:56.245Z,38.30
2019-04-04T16:03:24.457Z,39.40
2019-04-04T16:05:52.709Z,37.95
2019-04-04T16:08:20.951Z,41.53
2019-04-04T16:10:49.165Z,35.17
2019-04-04T16:13:17.496Z,34.10
2019-04-04T16:15:45.733Z,34.15
2019-04-04T16:18:13.974Z,36.50
2019-04-04T16:20:42.330Z,42.30
2019-04-04T16:23:10.779Z,32.38
2019-04-04T16:25:39.079Z,48.55
2019-04-04T16:28:07.307Z,37.03
2019-04-04T16:30:35.690Z,37.03
2019-04-04T16:33:03.924Z,34.38
2019-04-04T16:35:32.151Z,38.45
2019-04-04T16:38:00.456Z,40.05
2019-04-04T16:40:28.693Z,40.60
2019-04-04T16:42:56.936Z,35.92
2019-04-04T16:45:25.161Z,35.00
2019-04-04T16:47:53.556Z,50.48
2019-04-04T16:50:21.866Z,39.92
2019-04-04T16:52:50.081Z,49.85
2019-04-04T16:55:18.342Z,46.73
2019-04-04T16:57:46.634Z,38.90
2019-04-04T17:00:14.956Z,44.58
2019-04-04T17:02:43.212Z,40.43
2019-04-04T17:05:11.527Z,33.35
2019-04-04T17:07:39.888Z,34.85
2019-04-04T17:10:08.122Z,40.43
2019-04-04T17:12:36.517Z,36.83
2019-04-04T17:15:07.962Z,40.48
2019-04-04T17:17:36.966Z,34.08
2019-04-04T17:20:06.340Z,35.78
2019-04-04T17:22:34.821Z,35.45
2019-04-04T17:25:03.158Z,31.93
2019-04-04T17:27:31.377Z,39.92
2019-04-04T17:30:00.228Z,33.48
2019-04-04T17:32:28.759Z,33.50
2019-04-04T17:34:57.146Z,32.15
2019-04-04T17:37:25.408Z,31.93
2019-04-04T17:39:53.698Z,26.40
2019-04-04T17:42:29.178Z,22.25
2019-04-04T17:44:52.578Z,20.30
2019-04-04T17:47:21.315Z,17.12
2019-04-04T17:49:50.131Z,17.90
2019-04-04T17:52:19.588Z,19.75
2019-04-04T17:54:48.164Z,21.05
2019-04-04T17:57:16.845Z,17.50
2019-04-04T17:59:45.299Z,16.70
2019-04-04T18:02:13.603Z,17.48
2019-04-04T18:04:48.357Z,23.52
2019-04-04T18:07:11.804Z,22.67
2019-04-04T18:09:40.029Z,18.37
2019-04-04T18:12:08.275Z,15.55
2019-04-04T18:14:36.636Z,17.52
2019-04-04T18:17:04.956Z,16.02
2019-04-04T18:19:33.323Z,17.67
2019-04-04T18:22:01.630Z,19.20
2019-04-04T18:24:30.274Z,24.15
2019-04-04T18:26:58.572Z,16.50
2019-04-04T18:29:26.788Z,16.93
2019-04-04T18:31:55.027Z,17.32
2019-04-04T18:34:23.402Z,16.20
2019-04-04T18:36:51.940Z,16.62
2019-04-04T18:39:20.367Z,16.15
2019-04-04T18:41:48.633Z,17.00
2019-04-04T18:44:16.900Z,19.65
2019-04-04T18:46:45.117Z,12.95
2019-04-04T18:49:13.360Z,22.65
2019-04-04T18:51:41.604Z,16.20
2019-04-04T18:54:09.947Z,20.37
2019-04-04T18:56:38.308Z,21.00
2019-04-04T18:59:06.553Z,19.87
2019-04-04T19:01:34.777Z,18.85
2019-04-04T19:04:03.129Z,18.07
2019-04-04T19:06:31.436Z,21.33
2019-04-04T19:08:59.765Z,18.25
2019-04-04T19:11:28.177Z,14.40
2019-04-04T19:13:56.404Z,21.15
2019-04-04T19:16:24.696Z,20.55
2019-04-04T19:18:53.032Z,14.83
2019-04-04T19:21:21.491Z,15.10
2019-04-04T19:23:49.798Z,15.18
2019-04-04T19:26:18.211Z,18.45
2019-04-04T19:28:46.443Z,21.65
2019-04-04T19:31:14.740Z,16.40
2019-04-04T19:33:43.219Z,14.78
2019-04-04T19:36:11.458Z,14.83
2019-04-04T19:38:39.806Z,18.10
2019-04-04T19:41:08.169Z,19.87
2019-04-04T19:43:36.461Z,17.15
2019-04-04T19:46:05.013Z,21.60
2019-04-04T19:48:33.231Z,18.25
2019-04-04T19:51:01.584Z,17.98
2019-04-04T19:53:29.950Z,18.00
2019-04-04T19:55:58.186Z,17.55
2019-04-04T19:58:26.613Z,20.48
2019-04-04T20:00:55.273Z,20.35
2019-04-04T20:03:23.512Z,20.68
2019-04-04T20:05:51.849Z,25.35
2019-04-04T20:08:20.069Z,17.02
2019-04-04T20:10:48.304Z,18.62
2019-04-04T20:13:16.541Z,25.10
2019-04-04T20:15:44.804Z,21.60
2019-04-04T20:18:13.224Z,25.32
2019-04-04T20:20:41.454Z,26.30
2019-04-04T20:23:09.683Z,26.62
2019-04-04T20:25:37.914Z,27.73
2019-04-04T20:28:06.160Z,33.73
2019-04-04T20:30:38.711Z,28.80
2019-04-04T20:33:08.191Z,25.17
2019-04-04T20:35:36.424Z,26.02
2019-04-04T20:38:04.747Z,27.62
2019-04-04T20:40:32.967Z,21.65
2019-04-04T20:43:01.209Z,26.87
2019-04-04T20:45:29.446Z,22.80
2019-04-04T20:47:57.707Z,23.38
2019-04-04T20:50:25.972Z,23.38
2019-04-04T20:52:54.211Z,21.65
2019-04-04T20:55:22.470Z,19.35
2019-04-04T20:57:50.712Z,20.85
2019-04-04T21:00:18.948Z,25.88
2019-04-04T21:02:47.195Z,21.25
2019-04-04T21:05:15.420Z,21.97
2019-04-04T21:07:43.818Z,24.52
2019-04-04T21:10:12.045Z,24.30
2019-04-04T21:12:40.279Z,29.00
2019-04-04T21:15:08.515Z,26.48
2019-04-04T21:17:36.829Z,24.60
2019-04-04T21:20:06.683Z,30.35
2019-04-04T21:22:34.923Z,25.68
2019-04-04T21:25:03.349Z,26.87
2019-04-04T21:27:31.572Z,27.48
2019-04-04T21:29:59.864Z,21.52
2019-04-04T21:32:28.113Z,27.42
2019-04-04T21:34:56.345Z,26.00
2019-04-04T21:37:24.592Z,27.10
2019-04-04T21:39:52.845Z,29.50
2019-04-04T21:42:21.069Z,28.55
2019-04-04T21:44:49.303Z,26.40
2019-04-04T21:47:17.535Z,27.62
2019-04-04T21:49:45.867Z,29.57
2019-04-04T21:52:14.252Z,32.38
2019-04-04T21:54:42.524Z,28.65
2019-04-04T21:57:10.749Z,24.70
2019-04-04T21:59:38.981Z,32.98
2019-04-04T22:02:07.425Z,31.62
2019-04-04T22:04:35.833Z,30.17
2019-04-04T22:07:04.065Z,30.43
2019-04-04T22:09:33.710Z,34.80
2019-04-04T22:12:02.205Z,32.28
2019-04-04T22:14:30.440Z,34.25
2019-04-04T22:16:58.684Z,33.30
2019-04-04T22:19:26.933Z,35.68
2019-04-04T22:21:55.173Z,39.10
2019-04-04T22:24:23.389Z,36.00
2019-04-04T22:26:51.623Z,41.37
2019-04-04T22:29:19.999Z,48.20
2019-04-04T22:31:48.235Z,45.17
2019-04-04T22:34:16.462Z,40.85
2019-04-04T22:36:44.697Z,43.90
2019-04-04T22:39:12.919Z,46.45
2019-04-04T22:41:41.155Z,46.30
2019-04-04T22:44:09.455Z,41.88
2019-04-04T22:46:37.702Z,38.85
2019-04-04T22:49:05.916Z,46.60
2019-04-04T22:51:34.167Z,38.88
2019-04-04T22:54:02.550Z,35.23
2019-04-04T22:56:30.804Z,37.85
2019-04-04T22:58:59.019Z,39.35
2019-04-04T23:01:29.123Z,33.67
2019-04-04T23:03:57.192Z,34.45
2019-04-04T23:06:34.482Z,40.23
2019-04-04T23:08:55.655Z,37.58
2019-04-04T23:11:23.917Z,39.03
2019-04-04T23:13:52.159Z,45.65
2019-04-04T23:16:20.507Z,40.25
2019-04-04T23:18:48.747Z,53.80
2019-04-04T23:21:16.960Z,50.60
2019-04-04T23:23:45.186Z,43.23
2019-04-04T23:26:13.417Z,55.05
2019-04-04T23:28:41.643Z,50.33
2019-04-04T23:31:09.863Z,57.27
2019-04-04T23:33:38.095Z,59.15
2019-04-04T23:36:06.505Z,58.17
2019-04-04T23:38:35.772Z,51.77
2019-04-04T23:41:04.003Z,52.05
2019-04-04T23:43:32.351Z,73.05
2019-04-04T23:46:00.538Z,56.05
2019-04-04T23:48:28.762Z,56.15
2019-04-04T23:50:56.998Z,60.08
2019-04-04T23:53:25.214Z,70.25
2019-04-04T23:55:53.458Z,50.50
2019-04-04T23:58:21.795Z,62.93
